Time;durP1;ratioP1;P1;durP2;ratioP2;P2;SDS_P1;SDS_P2;PMS_P1;PMS_P2;Temp;Humidity;BMP_temperature;BMP_pressure;BME280_temperature;BME280_humidity;BME280_pressure;Samples;Min_cycle;Max_cycle;Signal;HPM_P1;HPM_P2
2023/10/04 00:02:19;;;;;;;;;;;;;;;28.66;81.34;101021.91;5020601;28;66672;-40
2023/10/04 00:04:49;;;;;;;;;;;;;;;28.68;82.68;101022.56;5016884;28;70284;-38
2023/10/04 00:07:19;;;;;;;;;;;;;;;28.70;83.57;101020.50;5005690;28;65975;-38
2023/10/04 00:09:48;;;;;;;;;;;;;;;28.72;83.92;101023.81;5015839;28;70096;-39
2023/10/04 00:12:18;;;;;;;;;;;;;;;28.70;83.18;101025.91;5031752;28;66928;-39
2023/10/04 00:14:49;;;;;;;;;;;;;;;28.72;84.01;101024.66;5014720;28;69834;-37
2023/10/04 00:17:18;;;;;;;;;;;;;;;28.74;84.91;101027.13;5018298;28;66924;-38
2023/10/04 00:19:48;;;;;;;;;;;;;;;28.76;85.08;101033.19;5016267;28;70003;-37
2023/10/04 00:22:19;;;;;;;;;;;;;;;28.77;85.33;101028.59;5024086;28;66592;-38
2023/10/04 00:24:51;;;;;;;;;;;;;;;28.78;85.81;101022.16;5010855;28;70392;-38
2023/10/04 00:27:30;;;;;;;;;;;;;;;28.79;85.43;101024.69;5017899;28;66982;-38
2023/10/04 00:30:00;;;;;;;;;;;;;;;28.79;85.91;101018.44;5018880;28;70727;-37
2023/10/04 00:32:31;;;;;;;;;;;;;;;28.81;86.66;101028.00;5016163;28;65089;-38
2023/10/04 00:35:01;;;;;;;;;;;;;;;28.83;86.88;101023.22;5021580;28;70519;-39
2023/10/04 00:37:31;;;;;;;;;;;;;;;28.85;87.00;101029.25;5016286;28;66550;-39
2023/10/04 00:40:09;;;;;;;;;;;;;;;28.88;86.82;101039.66;5018704;28;70296;-38
2023/10/04 00:42:40;;;;;;;;;;;;;;;28.91;86.50;101041.94;5011492;28;65711;-40
2023/10/04 00:45:12;;;;;;;;;;;;;;;28.92;86.16;101038.22;5012972;28;70355;-41
2023/10/04 00:47:50;;;;;;;;;;;;;;;28.93;84.94;101037.19;5015296;28;66482;-41
2023/10/04 00:50:25;;;;;;;;;;;;;;;28.96;83.43;101046.75;5019654;28;69844;-40
2023/10/04 00:53:05;;;;;;;;;;;;;;;29.00;82.36;101036.34;5018103;28;66912;-41
2023/10/04 00:55:38;;;;;;;;;;;;;;;29.04;80.88;101037.66;5009340;28;70072;-42
2023/10/04 00:58:09;;;;;;;;;;;;;;;29.08;80.76;101033.50;5014002;28;66224;-39
2023/10/04 01:00:39;;;;;;;;;;;;;;;29.11;80.27;101043.88;4998893;28;70057;-40
2023/10/04 01:03:09;;;;;;;;;;;;;;;29.13;79.74;101042.66;5017736;28;66421;-41
2023/10/04 01:05:46;;;;;;;;;;;;;;;29.16;79.20;101046.81;5002097;28;70499;-41
2023/10/04 01:08:20;;;;;;;;;;;;;;;29.18;78.54;101061.78;5021804;28;66696;-40
2023/10/04 01:10:50;;;;;;;;;;;;;;;29.22;78.11;101050.56;5031453;28;69582;-41
2023/10/04 01:13:22;;;;;;;;;;;;;;;29.24;78.19;101053.91;5018917;28;66216;-40
2023/10/04 01:15:57;;;;;;;;;;;;;;;29.26;78.14;101062.66;5035144;28;70501;-41
2023/10/04 01:18:30;;;;;;;;;;;;;;;29.28;77.70;101066.81;5034086;28;66579;-39
2023/10/04 01:21:00;;;;;;;;;;;;;;;29.29;77.29;101079.28;5021735;28;69181;-39
2023/10/04 01:23:30;;;;;;;;;;;;;;;29.31;77.50;101079.91;5021993;28;66628;-40
2023/10/04 01:26:00;;;;;;;;;;;;;;;29.31;77.26;101082.59;5023972;28;70537;-41
2023/10/04 01:28:30;;;;;;;;;;;;;;;29.35;77.16;101085.72;5019044;28;66320;-41
2023/10/04 01:31:00;;;;;;;;;;;;;;;29.35;77.37;101078.44;5017628;28;70225;-40
2023/10/04 01:33:30;;;;;;;;;;;;;;;29.37;76.98;101081.78;5022957;28;67150;-40
2023/10/04 01:36:00;;;;;;;;;;;;;;;29.38;77.07;101078.03;5005762;28;69479;-40
2023/10/04 01:38:32;;;;;;;;;;;;;;;29.40;77.18;101073.25;5004061;28;66523;-41
2023/10/04 01:41:04;;;;;;;;;;;;;;;29.42;76.77;101066.81;5035481;28;70397;-40
2023/10/04 01:43:34;;;;;;;;;;;;;;;29.43;76.95;101063.91;5025805;28;66848;-40
2023/10/04 01:46:06;;;;;;;;;;;;;;;29.45;76.45;101069.94;5039137;28;70672;-41
2023/10/04 01:48:36;;;;;;;;;;;;;;;29.47;76.51;101070.56;5013709;28;66954;-41
2023/10/04 01:51:06;;;;;;;;;;;;;;;29.49;76.14;101067.66;5009493;28;70306;-41
2023/10/04 01:53:37;;;;;;;;;;;;;;;29.50;76.33;101064.72;4994471;28;65687;-40
2023/10/04 01:56:07;;;;;;;;;;;;;;;29.53;76.12;101064.34;4994551;28;69763;-40
2023/10/04 01:58:37;;;;;;;;;;;;;;;29.55;76.43;101061.41;5010490;28;66480;-41
2023/10/04 02:01:08;;;;;;;;;;;;;;;29.56;76.30;101063.06;4989541;28;70675;-42
2023/10/04 02:03:38;;;;;;;;;;;;;;;29.57;76.02;101059.34;5006227;28;67761;-41
2023/10/04 02:06:08;;;;;;;;;;;;;;;29.57;75.83;101052.06;4998434;28;70401;-40
2023/10/04 02:08:39;;;;;;;;;;;;;;;29.59;75.71;101054.56;4995013;28;66140;-41
2023/10/04 02:11:11;;;;;;;;;;;;;;;29.61;75.81;101044.38;5000867;28;70002;-40
2023/10/04 02:13:42;;;;;;;;;;;;;;;29.62;76.27;101046.88;4987212;28;66408;-42
2023/10/04 02:16:20;;;;;;;;;;;;;;;29.64;75.72;101046.69;4992230;28;70195;-40
2023/10/04 02:18:52;;;;;;;;;;;;;;;29.66;75.96;101038.38;4994575;28;66429;-40
2023/10/04 02:21:23;;;;;;;;;;;;;;;29.68;76.17;101039.00;4984981;28;70747;-40
2023/10/04 02:23:56;;;;;;;;;;;;;;;29.70;75.97;101036.91;4998634;28;66381;-41
2023/10/04 02:26:28;;;;;;;;;;;;;;;29.69;75.93;101030.66;5011726;28;70138;-42
2023/10/04 02:28:57;;;;;;;;;;;;;;;29.73;75.56;101031.94;4993499;28;65707;-40
2023/10/04 02:31:29;;;;;;;;;;;;;;;29.75;75.72;101034.41;4997969;28;69050;-41
2023/10/04 02:34:01;;;;;;;;;;;;;;;29.76;75.62;101033.38;4991655;28;66692;-41
2023/10/04 02:36:37;;;;;;;;;;;;;;;29.78;75.26;101018.63;5004494;28;70539;-40
2023/10/04 02:39:11;;;;;;;;;;;;;;;29.80;75.74;101021.94;4990219;28;65793;-41
2023/10/04 02:41:41;;;;;;;;;;;;;;;29.82;75.22;101017.16;4995962;28;69397;-41
2023/10/04 02:44:11;;;;;;;;;;;;;;;29.84;75.53;101020.47;4987064;28;66826;-40
2023/10/04 02:46:44;;;;;;;;;;;;;;;29.87;75.14;101019.22;5002878;28;69762;-40
2023/10/04 02:49:14;;;;;;;;;;;;;;;29.88;75.31;101009.25;4995743;28;66729;-41
2023/10/04 02:51:45;;;;;;;;;;;;;;;29.91;74.89;101006.13;5006451;28;69917;-40
2023/10/04 02:54:17;;;;;;;;;;;;;;;29.94;74.87;101005.69;5012387;28;66944;-40
2023/10/04 02:56:50;;;;;;;;;;;;;;;29.96;74.88;101006.31;5009779;28;69980;-41
2023/10/04 02:59:20;;;;;;;;;;;;;;;29.98;75.30;100996.13;4998401;28;66609;-41
2023/10/04 03:01:50;;;;;;;;;;;;;;;29.99;75.18;100986.97;4990037;28;70337;-39
2023/10/04 03:04:20;;;;;;;;;;;;;;;30.02;74.46;100983.81;5007740;28;66130;-41
2023/10/04 03:06:51;;;;;;;;;;;;;;;30.04;74.69;100973.63;4989251;28;70367;-41
2023/10/04 03:09:24;;;;;;;;;;;;;;;30.06;74.38;100985.06;5001185;28;65488;-41
2023/10/04 03:11:54;;;;;;;;;;;;;;;30.09;74.43;100978.38;5012000;28;69704;-40
2023/10/04 03:14:24;;;;;;;;;;;;;;;30.10;74.46;100978.19;4993301;28;66909;-41
2023/10/04 03:16:54;;;;;;;;;;;;;;;30.13;74.32;100971.53;5005725;28;70142;-41
2023/10/04 03:19:25;;;;;;;;;;;;;;;30.16;74.20;100960.28;4988407;28;65291;-41
2023/10/04 03:21:55;;;;;;;;;;;;;;;30.18;74.60;100969.84;4990167;28;69806;-40
2023/10/04 03:24:25;;;;;;;;;;;;;;;30.21;74.52;100963.16;5015803;28;66314;-40
2023/10/04 03:26:55;;;;;;;;;;;;;;;30.22;74.58;100960.25;5013005;28;69676;-41
2023/10/04 03:29:25;;;;;;;;;;;;;;;30.23;74.26;100961.94;5010471;28;66372;-41
2023/10/04 03:31:55;;;;;;;;;;;;;;;30.25;74.36;100959.84;4990900;28;70208;-41
2023/10/04 03:34:25;;;;;;;;;;;;;;;30.27;74.32;100955.03;5003773;28;66775;-42
2023/10/04 03:37:07;;;;;;;;;;;;;;;30.30;74.33;100944.84;5006608;28;70095;-41
2023/10/04 03:39:39;;;;;;;;;;;;;;;30.32;73.86;100942.75;4989699;28;66427;-41
2023/10/04 03:42:11;;;;;;;;;;;;;;;30.33;73.99;100939.81;5011182;28;70035;-41
2023/10/04 03:44:41;;;;;;;;;;;;;;;30.35;74.51;100937.75;5010379;28;66543;-40
2023/10/04 03:47:11;;;;;;;;;;;;;;;30.36;74.41;100943.97;5012738;28;70353;-40
2023/10/04 03:49:40;;;;;;;;;;;;;;;30.37;74.19;100946.47;5001425;28;66973;-41
2023/10/04 03:52:10;;;;;;;;;;;;;;;30.39;74.10;100938.13;5003212;28;70595;-41
2023/10/04 03:54:40;;;;;;;;;;;;;;;30.41;74.06;100934.16;5015815;28;65769;-42
2023/10/04 03:57:12;;;;;;;;;;;;;;;30.43;73.91;100925.84;5016983;28;70679;-42
2023/10/04 03:59:44;;;;;;;;;;;;;;;30.44;74.28;100924.78;5018784;28;65474;-41
2023/10/04 04:02:14;;;;;;;;;;;;;;;30.45;73.58;100921.88;5013678;28;69956;-41
2023/10/04 04:04:43;;;;;;;;;;;;;;;30.47;73.69;100919.75;5016116;28;66462;-41
2023/10/04 04:07:14;;;;;;;;;;;;;;;30.49;73.55;100916.84;5002305;28;70553;-41
2023/10/04 04:09:44;;;;;;;;;;;;;;;30.51;73.77;100925.59;5016472;28;67372;-41
2023/10/04 04:12:16;;;;;;;;;;;;;;;30.54;73.41;100919.75;5010957;28;70759;-43
2023/10/04 04:14:46;;;;;;;;;;;;;;;30.55;73.42;100921.41;5017024;28;66762;-42
2023/10/04 04:17:16;;;;;;;;;;;;;;;30.57;73.60;100924.72;5021436;28;70653;-41
2023/10/04 04:19:46;;;;;;;;;;;;;;;30.59;73.15;100928.06;5018657;28;66305;-40
2023/10/04 04:22:23;;;;;;;;;;;;;;;30.61;73.31;100912.41;5016337;28;70604;-40
2023/10/04 04:24:53;;;;;;;;;;;;;;;30.62;73.04;100908.66;5018926;28;66286;-40
2023/10/04 04:27:23;;;;;;;;;;;;;;;30.65;73.17;100910.09;5004035;28;69345;-41
2023/10/04 04:29:54;;;;;;;;;;;;;;;30.66;73.16;100895.50;5016258;28;67223;-41
2023/10/04 04:32:27;;;;;;;;;;;;;;;30.67;72.99;100892.59;5002216;28;69979;-42
2023/10/04 04:34:58;;;;;;;;;;;;;;;30.70;73.09;100892.16;5013065;28;65492;-42
2023/10/04 04:37:29;;;;;;;;;;;;;;;30.72;72.97;100895.44;5013532;28;70590;-41
2023/10/04 04:40:00;;;;;;;;;;;;;;;30.75;72.50;100887.94;5006647;28;65488;-41
2023/10/04 04:42:37;;;;;;;;;;;;;;;30.76;72.57;100885.03;5016157;28;70141;-41
2023/10/04 04:45:08;;;;;;;;;;;;;;;30.79;72.23;100884.59;5005444;28;68073;-40
2023/10/04 04:47:40;;;;;;;;;;;;;;;30.81;72.40;100881.69;5012255;28;69704;-41
2023/10/04 04:50:11;;;;;;;;;;;;;;;30.83;72.31;100885.00;5012802;28;66135;-42
2023/10/04 04:52:42;;;;;;;;;;;;;;;30.84;72.03;100871.25;5009134;28;69109;-41
2023/10/04 04:55:14;;;;;;;;;;;;;;;30.88;71.89;100871.63;5025148;28;65655;-43
2023/10/04 04:57:44;;;;;;;;;;;;;;;30.88;71.99;100877.06;5025301;28;70278;-41
2023/10/04 05:00:31;;;;;;;;;;;;;;;30.90;71.65;100861.41;5002343;28;65809;-42
2023/10/04 05:03:06;;;;;;;;;;;;;;;30.91;71.74;100852.22;5009007;28;70718;-41
2023/10/04 05:05:36;;;;;;;;;;;;;;;30.93;71.64;100852.84;5013893;28;65889;-41
2023/10/04 05:08:06;;;;;;;;;;;;;;;30.95;71.26;100850.72;5018682;28;70785;-41
2023/10/04 05:10:44;;;;;;;;;;;;;;;30.97;71.49;100859.47;5025263;28;65506;-41
2023/10/04 05:13:14;;;;;;;;;;;;;;;30.99;71.45;100851.13;5017192;28;70013;-42
2023/10/04 05:15:47;;;;;;;;;;;;;;;31.00;71.67;100845.47;5019951;28;66579;-41
2023/10/04 05:18:18;;;;;;;;;;;;;;;31.02;71.09;100840.66;5017059;28;69989;-41
2023/10/04 05:20:52;;;;;;;;;;;;;;;31.04;71.27;100838.56;5020181;28;66772;-42
2023/10/04 05:23:26;;;;;;;;;;;;;;;31.04;71.22;100825.03;5018666;28;70343;-41
2023/10/04 05:25:56;;;;;;;;;;;;;;;31.06;71.24;100825.63;5017159;28;66291;-41
2023/10/04 05:28:27;;;;;;;;;;;;;;;31.08;71.34;100807.25;5015731;28;70608;-40
2023/10/04 05:30:57;;;;;;;;;;;;;;;31.10;71.22;100805.16;5015451;28;65707;-41
2023/10/04 05:33:27;;;;;;;;;;;;;;;31.13;70.69;100793.88;5019006;28;70530;-40
2023/10/04 05:36:00;;;;;;;;;;;;;;;31.15;70.89;100796.38;5013602;28;66885;-40
2023/10/04 05:38:32;;;;;;;;;;;;;;;31.18;70.98;100787.78;5020838;28;70792;-41
2023/10/04 05:41:02;;;;;;;;;;;;;;;31.20;70.91;100782.13;5002792;28;66085;-40
2023/10/04 05:43:34;;;;;;;;;;;;;;;31.22;70.47;100785.47;5019621;28;70565;-42
2023/10/04 05:46:06;;;;;;;;;;;;;;;31.22;70.64;100772.72;5015049;28;66302;-41
2023/10/04 05:48:36;;;;;;;;;;;;;;;31.25;70.57;100771.44;5001680;28;69184;-41
2023/10/04 05:51:07;;;;;;;;;;;;;;;31.26;70.68;100765.81;5014143;28;66365;-41
2023/10/04 05:53:38;;;;;;;;;;;;;;;31.28;70.53;100768.28;5010141;28;70679;-42
2023/10/04 05:56:09;;;;;;;;;;;;;;;31.28;70.18;100758.28;5018756;28;66135;-42
2023/10/04 05:58:39;;;;;;;;;;;;;;;31.29;70.65;100769.97;5012490;28;70591;-42
2023/10/04 06:01:13;;;;;;;;;;;;;;;31.30;70.46;100779.75;5019199;28;65707;-40
2023/10/04 06:03:43;;;;;;;;;;;;;;;31.26;70.69;100775.81;5017509;28;70628;-40
2023/10/04 06:06:13;;;;;;;;;;;;;;;31.32;70.69;100778.47;5019618;28;66754;-41
2023/10/04 06:08:45;;;;;;;;;;;;;;;31.33;70.53;100782.00;4996919;28;69205;-41
2023/10/04 06:11:15;;;;;;;;;;;;;;;31.32;70.30;100783.88;5022518;28;65972;-42
2023/10/04 06:13:45;;;;;;;;;;;;;;;31.34;70.55;100780.94;5017260;28;70321;-41
2023/10/04 06:16:18;;;;;;;;;;;;;;;31.35;70.55;100782.59;5010817;28;65990;-41
2023/10/04 06:18:49;;;;;;;;;;;;;;;31.36;70.55;100784.28;5019689;28;70552;-41
2023/10/04 06:21:21;;;;;;;;;;;;;;;31.35;70.52;100779.91;5018507;28;65519;-43
2023/10/04 06:23:52;;;;;;;;;;;;;;;31.36;70.33;100776.97;5013985;28;69433;-41
2023/10/04 06:26:21;;;;;;;;;;;;;;;31.38;70.58;100774.88;5015524;28;65521;-40
2023/10/04 06:28:51;;;;;;;;;;;;;;;31.38;70.71;100780.28;5029576;28;70037;-40
2023/10/04 06:31:21;;;;;;;;;;;;;;;31.39;70.67;100770.28;5001335;28;66669;-40
2023/10/04 06:33:53;;;;;;;;;;;;;;;31.40;70.55;100761.09;5017896;28;70390;-41
2023/10/04 06:36:25;;;;;;;;;;;;;;;31.41;70.75;100754.63;5020226;28;66862;-42
2023/10/04 06:38:55;;;;;;;;;;;;;;;31.42;70.58;100756.25;5025910;28;69865;-41
2023/10/04 06:41:25;;;;;;;;;;;;;;;31.43;71.07;100755.22;5011462;28;66708;-41
2023/10/04 06:43:56;;;;;;;;;;;;;;;31.44;70.87;100740.59;5020417;28;70582;-41
2023/10/04 06:46:26;;;;;;;;;;;;;;;31.47;70.87;100733.91;4998543;28;66999;-41
2023/10/04 06:48:56;;;;;;;;;;;;;;;31.50;71.10;100728.03;5017845;28;70673;-41
2023/10/04 06:51:26;;;;;;;;;;;;;;;31.52;70.59;100715.91;5014737;28;66979;-43
2023/10/04 06:53:58;;;;;;;;;;;;;;;31.54;70.71;100702.94;5020193;28;70348;-41
2023/10/04 06:56:27;;;;;;;;;;;;;;;31.57;71.02;100691.66;5016423;28;66869;-40
2023/10/04 06:58:57;;;;;;;;;;;;;;;31.60;70.75;100695.78;5011424;28;70051;-42
2023/10/04 07:01:27;;;;;;;;;;;;;;;31.63;70.73;100689.06;5010572;28;66589;-41
2023/10/04 07:03:57;;;;;;;;;;;;;;;31.65;70.78;100685.09;5018295;28;70155;-41
2023/10/04 07:06:27;;;;;;;;;;;;;;;31.67;70.44;100685.66;5016915;28;66948;-40
2023/10/04 07:08:56;;;;;;;;;;;;;;;31.70;70.73;100690.63;5017275;28;70529;-41
2023/10/04 07:11:27;;;;;;;;;;;;;;;31.71;70.70;100688.75;5027146;28;66848;-41
2023/10/04 07:13:56;;;;;;;;;;;;;;;31.74;70.77;100678.25;5016887;28;70708;-41
2023/10/04 07:16:27;;;;;;;;;;;;;;;31.76;70.58;100678.00;5021569;28;66518;-41
2023/10/04 07:18:58;;;;;;;;;;;;;;;31.78;70.43;100675.91;5020025;28;70207;-41
2023/10/04 07:21:31;;;;;;;;;;;;;;;31.81;70.47;100678.16;5021362;28;66856;-40
2023/10/04 07:24:01;;;;;;;;;;;;;;;31.86;70.51;100670.16;5017560;28;70138;-40
2023/10/04 07:26:35;;;;;;;;;;;;;;;31.88;70.25;100664.50;5023610;28;66541;-41
2023/10/04 07:29:06;;;;;;;;;;;;;;;31.91;70.47;100661.31;5018053;28;70351;-41
2023/10/04 07:31:36;;;;;;;;;;;;;;;31.93;70.16;100654.66;5016375;28;66868;-40
2023/10/04 07:34:06;;;;;;;;;;;;;;;31.96;70.26;100654.19;4998054;28;69856;-41
2023/10/04 07:36:36;;;;;;;;;;;;;;;32.00;69.84;100646.38;5022607;28;66282;-41
2023/10/04 07:39:06;;;;;;;;;;;;;;;32.03;69.89;100656.78;5019809;28;70604;-41
2023/10/04 07:41:37;;;;;;;;;;;;;;;32.07;70.07;100644.41;5022174;28;66049;-41
2023/10/04 07:44:09;;;;;;;;;;;;;;;32.11;69.78;100650.19;5016423;28;69753;-41
2023/10/04 07:46:39;;;;;;;;;;;;;;;32.14;69.69;100657.84;5017577;28;65338;-41
2023/10/04 07:49:09;;;;;;;;;;;;;;;32.18;69.56;100667.16;5021580;28;69846;-41
2023/10/04 07:51:39;;;;;;;;;;;;;;;32.19;69.50;100671.56;5021060;28;66187;-41
2023/10/04 07:54:10;;;;;;;;;;;;;;;31.97;69.32;100631.41;5018987;28;70616;-41
2023/10/04 07:56:40;;;;;;;;;;;;;;;32.27;69.03;100668.50;5017905;28;66587;-41
2023/10/04 07:59:10;;;;;;;;;;;;;;;32.31;69.00;100664.22;5023612;28;70108;-41
2023/10/04 08:01:39;;;;;;;;;;;;;;;32.35;69.15;100654.56;5023187;28;65379;-40
2023/10/04 08:04:11;;;;;;;;;;;;;;;32.40;69.05;100646.56;5019008;28;70035;-41
2023/10/04 08:06:44;;;;;;;;;;;;;;;32.43;68.82;100646.06;5022239;28;66375;-42
2023/10/04 08:09:14;;;;;;;;;;;;;;;32.49;68.87;100650.59;5018512;28;69630;-41
2023/10/04 08:11:44;;;;;;;;;;;;;;;32.53;68.62;100650.94;5027753;28;65941;-40
2023/10/04 08:14:14;;;;;;;;;;;;;;;32.58;68.44;100647.50;5020629;28;69930;-41
2023/10/04 08:16:44;;;;;;;;;;;;;;;32.60;68.35;100646.22;5020965;28;66769;-40
2023/10/04 08:19:14;;;;;;;;;;;;;;;32.63;68.00;100644.91;5016502;28;70064;-41
2023/10/04 08:21:45;;;;;;;;;;;;;;;32.66;68.17;100639.81;5020233;28;66993;-42
2023/10/04 08:24:15;;;;;;;;;;;;;;;32.68;68.24;100631.41;5016210;28;70644;-43
2023/10/04 08:26:48;;;;;;;;;;;;;;;32.69;67.93;100642.06;5014651;28;66048;-40
2023/10/04 08:29:18;;;;;;;;;;;;;;;32.74;68.02;100643.25;5018749;28;70480;-40
2023/10/04 08:31:48;;;;;;;;;;;;;;;32.74;67.96;100641.34;5010832;28;65551;-41
2023/10/04 08:34:18;;;;;;;;;;;;;;;32.76;67.73;100639.19;5019624;28;70947;-39
2023/10/04 08:36:48;;;;;;;;;;;;;;;32.78;67.81;100631.66;5009291;28;67132;-41
2023/10/04 08:39:18;;;;;;;;;;;;;;;32.80;67.66;100634.97;5016820;28;70607;-41
2023/10/04 08:42:06;;;;;;;;;;;;;;;32.83;67.61;100634.47;5014483;28;66891;-41
2023/10/04 08:44:54;;;;;;;;;;;;;;;32.84;67.52;100630.69;5019525;28;69758;-40
2023/10/04 08:47:43;;;;;;;;;;;;;;;32.88;67.33;100621.00;5017747;28;66996;-41
2023/10/04 08:50:46;;;;;;;;;;;;;;;32.90;67.20;100618.88;5014553;28;70654;-40
2023/10/04 08:53:34;;;;;;;;;;;;;;;32.94;67.48;100625.47;5021833;28;65530;-41
2023/10/04 08:56:23;;;;;;;;;;;;;;;32.98;67.34;100622.28;5017782;28;69384;-41
2023/10/04 08:59:05;;;;;;;;;;;;;;;32.95;67.17;100615.41;5020043;28;66313;-41
2023/10/04 09:01:35;;;;;;;;;;;;;;;32.99;67.12;100626.63;5015727;28;70410;-40
2023/10/04 09:04:05;;;;;;;;;;;;;;;32.99;67.23;100626.63;5022661;28;67191;-40
2023/10/04 09:06:37;;;;;;;;;;;;;;;33.02;67.23;100628.91;5015159;28;70332;-41
2023/10/04 09:09:11;;;;;;;;;;;;;;;33.03;67.09;100622.41;4995816;28;65168;-40
2023/10/04 09:11:41;;;;;;;;;;;;;;;33.05;67.06;100631.97;5014365;28;69914;-40
2023/10/04 09:14:15;;;;;;;;;;;;;;;33.06;66.89;100632.78;5004007;28;66636;-42
2023/10/04 09:17:02;;;;;;;;;;;;;;;33.07;66.91;100634.44;5019737;28;69746;-42
2023/10/04 09:19:32;;;;;;;;;;;;;;;33.08;67.20;100633.38;5019436;28;66958;-40
2023/10/04 09:22:06;;;;;;;;;;;;;;;33.07;67.05;100632.56;5017610;28;69843;-41
2023/10/04 09:24:55;;;;;;;;;;;;;;;33.09;67.00;100635.84;5017052;28;66093;-41
2023/10/04 09:27:25;;;;;;;;;;;;;;;33.09;66.92;100637.75;4991341;28;69002;-41
2023/10/04 09:29:57;;;;;;;;;;;;;;;33.06;67.15;100639.03;5016612;28;66029;-40
2023/10/04 09:32:35;;;;;;;;;;;;;;;33.06;67.07;100640.94;5024124;28;70659;-42
2023/10/04 09:35:05;;;;;;;;;;;;;;;33.05;67.55;100642.03;5033441;28;65705;-40
2023/10/04 09:37:35;;;;;;;;;;;;;;;33.05;67.24;100645.56;5031173;28;69674;-41
2023/10/04 09:40:11;;;;;;;;;;;;;;;33.06;67.21;100655.34;5015122;28;66045;-40
2023/10/04 09:42:56;;;;;;;;;;;;;;;33.05;67.23;100653.72;5022380;28;70373;-41
2023/10/04 09:45:31;;;;;;;;;;;;;;;33.07;67.53;100650.72;5022235;28;66154;-41
2023/10/04 09:48:03;;;;;;;;;;;;;;;33.06;67.29;100654.53;5024737;28;70438;-41
2023/10/04 09:50:33;;;;;;;;;;;;;;;33.01;67.37;100657.13;5021604;28;66841;-41
2023/10/04 09:53:03;;;;;;;;;;;;;;;33.01;67.39;100651.69;5017502;28;70439;-40
2023/10/04 09:55:33;;;;;;;;;;;;;;;32.99;67.43;100649.22;5020708;28;66887;-42
2023/10/04 09:58:05;;;;;;;;;;;;;;;32.99;67.20;100653.78;5018136;28;70295;-40
2023/10/04 10:00:35;;;;;;;;;;;;;;;32.98;67.25;100646.72;5023416;28;66267;-40
2023/10/04 10:03:08;;;;;;;;;;;;;;;32.96;67.95;100648.84;5017514;28;70488;-41
2023/10/04 10:05:40;;;;;;;;;;;;;;;32.84;67.67;100630.69;5018949;28;66946;-41
2023/10/04 10:08:12;;;;;;;;;;;;;;;32.93;67.69;100656.44;5014606;28;70738;-40
2023/10/04 10:10:42;;;;;;;;;;;;;;;32.93;67.76;100647.44;5014637;28;66639;-41
2023/10/04 10:13:12;;;;;;;;;;;;;;;32.91;67.80;100647.69;5008589;28;70705;-40
2023/10/04 10:15:43;;;;;;;;;;;;;;;32.88;67.89;100648.16;5018082;28;65352;-41
2023/10/04 10:18:13;;;;;;;;;;;;;;;32.89;67.71;100649.81;5009643;28;69978;-41
2023/10/04 10:20:43;;;;;;;;;;;;;;;32.87;68.02;100646.50;5014377;28;67076;-41
2023/10/04 10:23:13;;;;;;;;;;;;;;;32.85;67.86;100647.84;5014000;28;70504;-41
2023/10/04 10:26:03;;;;;;;;;;;;;;;32.87;68.07;100656.53;4999584;28;65341;-41
2023/10/04 10:28:34;;;;;;;;;;;;;;;32.82;68.07;100657.28;5001088;28;70566;-41
2023/10/04 10:31:05;;;;;;;;;;;;;;;32.64;68.14;100639.22;5017416;28;67275;-41
2023/10/04 10:33:35;;;;;;;;;;;;;;;32.77;68.09;100662.59;5014519;28;70375;-40
2023/10/04 10:36:05;;;;;;;;;;;;;;;32.74;68.16;100663.09;5012911;28;67125;-40
2023/10/04 10:38:41;;;;;;;;;;;;;;;32.47;70.20;100660.84;5006672;28;69645;-39
2023/10/04 10:41:33;;;;;;;;;;;;;;;32.21;71.73;100661.28;5007346;28;66983;-38
2023/10/04 10:44:24;;;;;;;;;;;;;;;32.04;72.60;100663.88;5004942;28;69138;-40
2023/10/04 10:46:54;;;;;;;;;;;;;;;31.97;73.52;100674.00;5019826;28;67085;-39
2023/10/04 10:49:39;;;;;;;;;;;;;;;31.88;73.83;100670.75;5017670;28;70526;-39
2023/10/04 10:52:39;;;;;;;;;;;;;;;31.85;74.07;100682.06;5008083;28;66028;-40
2023/10/04 10:55:19;;;;;;;;;;;;;;;31.79;74.54;100685.72;4993651;28;69743;-39
2023/10/04 10:57:50;;;;;;;;;;;;;;;31.76;74.88;100691.56;4996521;28;66561;-39
2023/10/04 11:00:23;;;;;;;;;;;;;;;31.44;74.98;100643.03;4997896;28;70164;-40
2023/10/04 11:02:53;;;;;;;;;;;;;;;31.75;74.99;100703.50;4984539;28;66494;-39
2023/10/04 11:05:25;;;;;;;;;;;;;;;31.69;75.45;100704.41;4989435;28;70862;-39
2023/10/04 11:07:55;;;;;;;;;;;;;;;31.69;76.14;100701.72;4988464;28;67179;-38
2023/10/04 11:10:26;;;;;;;;;;;;;;;31.69;76.73;100707.94;4998151;28;69652;-40
2023/10/04 11:13:03;;;;;;;;;;;;;;;31.69;77.06;100712.56;5005180;28;65942;-41
2023/10/04 11:15:33;;;;;;;;;;;;;;;31.67;77.55;100711.94;5002181;28;69995;-39
2023/10/04 11:18:03;;;;;;;;;;;;;;;31.65;78.12;100717.63;4998282;28;67405;-40
2023/10/04 11:20:36;;;;;;;;;;;;;;;31.65;77.95;100730.31;5000622;28;70427;-40
2023/10/04 11:23:07;;;;;;;;;;;;;;;31.63;78.26;100727.03;4996535;28;66658;-41
2023/10/04 11:25:36;;;;;;;;;;;;;;;31.60;77.84;100734.56;4993793;28;70080;-40
2023/10/04 11:28:07;;;;;;;;;;;;;;;31.64;78.04;100739.53;5002077;28;66945;-39
2023/10/04 11:30:37;;;;;;;;;;;;;;;31.61;77.93;100757.91;4995316;28;70530;-39
2023/10/04 11:33:08;;;;;;;;;;;;;;;31.56;78.12;100757.75;4988848;28;67272;-41
2023/10/04 11:35:40;;;;;;;;;;;;;;;31.57;78.07;100755.91;4985046;28;69370;-39
2023/10/04 11:38:15;;;;;;;;;;;;;;;31.54;78.29;100773.44;5009290;28;66419;-40
2023/10/04 11:40:47;;;;;;;;;;;;;;;31.29;78.20;100737.44;4987223;28;70517;-40
2023/10/04 11:43:17;;;;;;;;;;;;;;;31.53;78.28;100781.78;4995734;28;65929;-39
2023/10/04 11:45:47;;;;;;;;;;;;;;;31.53;78.13;100779.06;4995768;28;68596;-41
2023/10/04 11:48:21;;;;;;;;;;;;;;;31.51;78.04;100789.31;4994032;28;66708;-40
2023/10/04 11:50:52;;;;;;;;;;;;;;;31.48;78.19;100793.34;4995496;28;69966;-39
2023/10/04 11:53:32;;;;;;;;;;;;;;;31.48;77.93;100806.03;5003435;28;65288;-41
2023/10/04 11:56:06;;;;;;;;;;;;;;;31.46;78.29;100803.56;4996167;28;70273;-41
2023/10/04 11:58:46;;;;;;;;;;;;;;;31.45;78.11;100807.31;4995924;28;66283;-40
2023/10/04 12:01:17;;;;;;;;;;;;;;;31.44;78.15;100811.09;4991424;28;69829;-40
2023/10/04 12:03:50;;;;;;;;;;;;;;;31.44;78.04;100823.81;4995010;28;67245;-40
2023/10/04 12:06:24;;;;;;;;;;;;;;;31.43;77.85;100824.88;5001617;28;69909;-40
2023/10/04 12:08:54;;;;;;;;;;;;;;;31.41;78.39;100826.97;4991406;28;65891;-40
2023/10/04 12:11:35;;;;;;;;;;;;;;;31.58;77.27;100836.16;5008436;28;69111;-38
2023/10/04 12:14:09;;;;;;;;;;;;;;;31.72;76.83;100842.25;4993374;28;65513;-39
2023/10/04 12:16:41;;;;;;;;;;;;;;;31.79;76.51;100843.03;5011941;28;70420;-40
2023/10/04 12:19:11;;;;;;;;;;;;;;;31.86;76.49;100851.88;5000581;28;67182;-39
2023/10/04 12:21:41;;;;;;;;;;;;;;;31.90;75.95;100858.53;5009465;28;70662;-39
2023/10/04 12:24:11;;;;;;;;;;;;;;;31.93;75.91;100863.53;5005523;28;65582;-39
2023/10/04 12:26:41;;;;;;;;;;;;;;;31.95;75.99;100860.56;5005973;28;69176;-38
2023/10/04 12:29:13;;;;;;;;;;;;;;;31.96;75.75;100868.50;5001680;28;66925;-40
2023/10/04 12:31:43;;;;;;;;;;;;;;;31.98;75.66;100869.09;5001540;28;69560;-40
2023/10/04 12:34:14;;;;;;;;;;;;;;;31.99;75.52;100868.03;5002960;28;66496;-40
2023/10/04 12:36:44;;;;;;;;;;;;;;;31.99;75.62;100868.03;4996478;28;70670;-40
2023/10/04 12:39:25;;;;;;;;;;;;;;;31.98;75.70;100863.69;5004859;28;66371;-39
2023/10/04 12:42:01;;;;;;;;;;;;;;;31.73;77.82;100862.91;4992198;28;69810;-39
2023/10/04 12:44:41;;;;;;;;;;;;;;;31.59;78.65;100863.06;5001385;28;67033;-38
2023/10/04 12:47:13;;;;;;;;;;;;;;;31.51;79.24;100871.50;4988010;28;69290;-40
2023/10/04 12:49:43;;;;;;;;;;;;;;;31.44;79.96;100865.31;4995934;28;66053;-38
2023/10/04 12:52:12;;;;;;;;;;;;;;;31.41;80.12;100871.19;5010104;28;69912;-39
2023/10/04 12:54:42;;;;;;;;;;;;;;;31.26;80.34;100857.09;5002529;28;66510;-40
2023/10/04 12:57:12;;;;;;;;;;;;;;;31.34;80.61;100886.63;5015573;28;70616;-40
2023/10/04 12:59:43;;;;;;;;;;;;;;;31.35;80.32;100888.31;5018726;28;67003;-40
2023/10/04 13:02:13;;;;;;;;;;;;;;;31.31;80.27;100892.50;5017457;28;69236;-41